Barr, Mississippi
Current Conditions -  °F | °C
As of 4:55 PM on Thursday 23 Oct 2014 (Local Time) from KUOX Reporting Station
Clear Clear  
Wind Chill: 59°   Ceiling: Unl
Heat Index: 59°   Visibility: 10mi
Dew Point: 48°   Wind: 6mph
Humidity: 67%   Direction: 300°WNW
Pressure: 30.14"   Gusts: NA
Location:  34.6336°N, 89.8203°W
Report Text: KUOX 232155Z AUTO 30005KT 10SM CLR 15/09 A3014 RMK AO2 PWINO PNO
Loading
Personal Weather Stations






























Interactive Weather Map
Tropical Storm Tracking
New forecast layout! Learn more

10-Day Weather Forecast

Advertisements
Track Severe Weather on mobile